createdAt,value
2019-05-07T04:27:26.038Z,91.11
2019-05-07T04:28:25.459Z,90.64
2019-05-07T04:29:25.430Z,90.59
2019-05-07T04:30:25.372Z,90.80
2019-05-07T04:31:25.336Z,90.70
2019-05-07T04:32:25.335Z,90.49
2019-05-07T04:33:25.323Z,91.42
2019-05-07T04:34:25.229Z,90.49
2019-05-07T04:35:25.195Z,90.80
2019-05-07T04:36:25.163Z,90.80
2019-05-07T04:37:25.183Z,89.98
2019-05-07T04:38:25.099Z,90.14
2019-05-07T04:39:25.079Z,90.35
2019-05-07T04:40:25.956Z,89.32
2019-05-07T04:41:25.001Z,89.73
2019-05-07T04:42:25.047Z,89.52
2019-05-07T04:43:24.954Z,89.62
2019-05-07T04:44:24.898Z,89.22
2019-05-07T04:45:24.868Z,89.94
2019-05-07T04:46:24.838Z,90.04
2019-05-07T04:47:38.669Z,89.42
2019-05-07T04:48:24.786Z,89.11
2019-05-07T04:49:24.738Z,89.22
2019-05-07T04:50:37.816Z,89.07
2019-05-07T04:51:24.675Z,89.01
2019-05-07T04:52:24.705Z,88.18
2019-05-07T04:53:24.632Z,88.70
2019-05-07T04:54:24.576Z,88.18
2019-05-07T04:55:24.549Z,87.73
2019-05-07T04:56:24.517Z,87.77
2019-05-07T04:57:24.484Z,88.24
2019-05-07T04:58:26.386Z,88.04
2019-05-07T04:59:24.414Z,88.24
2019-05-07T05:00:24.389Z,87.83
2019-05-07T05:01:24.351Z,87.93
2019-05-07T05:02:24.319Z,87.93
2019-05-07T05:03:24.432Z,87.42
2019-05-07T05:04:30.174Z,87.59
2019-05-07T05:05:24.231Z,87.69
2019-05-07T05:06:24.456Z,87.17
2019-05-07T05:07:24.163Z,87.27
2019-05-07T05:08:24.162Z,86.87
2019-05-07T05:09:24.133Z,86.35
2019-05-07T05:10:24.063Z,87.17
2019-05-07T05:11:24.030Z,85.94
2019-05-07T05:12:24.006Z,85.83
2019-05-07T05:13:24.051Z,85.79
2019-05-07T05:14:23.941Z,86.21
2019-05-07T05:15:23.911Z,85.69
2019-05-07T05:16:23.876Z,84.97
2019-05-07T05:17:23.841Z,84.52
2019-05-07T05:18:23.862Z,84.27
2019-05-07T05:19:23.773Z,83.35
2019-05-07T05:20:23.746Z,82.77
2019-05-07T05:21:23.715Z,83.07
2019-05-07T05:22:23.681Z,83.07
2019-05-07T05:23:23.712Z,83.63
2019-05-07T05:24:23.618Z,83.94
2019-05-07T05:25:23.596Z,84.45
2019-05-07T05:26:23.555Z,84.35
2019-05-07T05:27:23.522Z,83.01
2019-05-07T05:28:23.494Z,82.50
2019-05-07T05:29:23.485Z,82.23
2019-05-07T05:30:23.427Z,82.91
2019-05-07T05:31:23.400Z,83.07
2019-05-07T05:32:23.365Z,82.77
2019-05-07T05:33:23.610Z,82.15
2019-05-07T05:34:23.342Z,82.32
2019-05-07T05:35:23.290Z,81.09
2019-05-07T05:36:23.957Z,80.02
2019-05-07T05:37:23.212Z,79.85
2019-05-07T05:38:23.175Z,79.64
2019-05-07T05:39:23.167Z,79.64
2019-05-07T05:40:23.118Z,79.33
2019-05-07T05:41:23.089Z,79.13
2019-05-07T05:42:23.060Z,79.47
2019-05-07T05:43:23.022Z,80.40
2019-05-07T05:44:23.106Z,80.57
2019-05-07T05:45:22.985Z,80.16
2019-05-07T05:46:22.929Z,79.54
2019-05-07T05:47:23.120Z,78.47
2019-05-07T05:48:22.866Z,77.96
2019-05-07T05:49:23.117Z,78.72
2019-05-07T05:50:26.459Z,79.47
2019-05-07T05:51:22.992Z,79.10
2019-05-07T05:52:22.763Z,79.20
2019-05-07T05:53:22.709Z,77.04
2019-05-07T05:54:23.551Z,76.83
2019-05-07T05:55:22.769Z,78.38
2019-05-07T05:56:22.943Z,79.10
2019-05-07T05:57:23.124Z,79.72
2019-05-07T05:58:24.162Z,79.10
2019-05-07T05:59:27.663Z,78.58
2019-05-07T06:00:23.460Z,78.17
2019-05-07T06:01:22.677Z,77.14
2019-05-07T06:02:22.852Z,77.45
2019-05-07T06:03:22.764Z,77.66
2019-05-07T06:04:22.443Z,77.04
2019-05-07T06:05:22.376Z,77.31
2019-05-07T06:06:22.303Z,77.51
2019-05-07T06:07:22.734Z,77.17
2019-05-07T06:08:24.004Z,77.96
2019-05-07T06:09:22.205Z,76.45
2019-05-07T06:10:22.513Z,75.22
2019-05-07T06:11:22.143Z,75.52
2019-05-07T06:12:22.238Z,76.04
2019-05-07T06:13:23.089Z,76.45
2019-05-07T06:14:22.271Z,75.56
2019-05-07T06:15:22.323Z,76.45
2019-05-07T06:16:22.116Z,75.22
2019-05-07T06:17:22.477Z,74.77
2019-05-07T06:18:23.912Z,75.08
2019-05-07T06:19:22.578Z,75.59
2019-05-07T06:20:22.605Z,74.67
2019-05-07T06:21:23.974Z,76.62
2019-05-07T06:22:22.326Z,74.98
2019-05-07T06:23:22.512Z,74.98
2019-05-07T06:24:22.645Z,74.36
2019-05-07T06:25:24.880Z,74.46
2019-05-07T06:26:22.691Z,75.08
2019-05-07T06:27:22.946Z,74.67
2019-05-07T06:28:22.594Z,75.08
2019-05-07T06:29:23.121Z,72.61
2019-05-07T06:30:22.767Z,71.75
2019-05-07T06:31:22.122Z,72.00
2019-05-07T06:32:22.930Z,72.09
2019-05-07T06:33:22.953Z,71.48
2019-05-07T06:34:21.967Z,70.86
2019-05-07T06:35:23.027Z,71.89
2019-05-07T06:36:21.996Z,71.34
2019-05-07T06:37:22.816Z,70.11
2019-05-07T06:38:22.016Z,70.01
2019-05-07T06:39:22.168Z,70.32
2019-05-07T06:40:24.075Z,69.15
2019-05-07T06:41:22.696Z,68.74
2019-05-07T06:42:22.168Z,68.23
2019-05-07T06:43:21.846Z,67.89
2019-05-07T06:44:22.354Z,67.38
2019-05-07T06:45:22.773Z,67.38
2019-05-07T06:46:23.077Z,66.35
2019-05-07T06:47:22.171Z,67.48
2019-05-07T06:48:34.711Z,67.89
2019-05-07T06:49:22.263Z,67.79
2019-05-07T06:50:22.056Z,66.31
2019-05-07T06:51:22.035Z,66.45
2019-05-07T06:52:22.409Z,66.22
2019-05-07T06:53:22.253Z,67.14
2019-05-07T06:54:22.586Z,66.22
2019-05-07T06:55:22.745Z,65.98
2019-05-07T06:56:22.906Z,63.85
2019-05-07T06:57:22.237Z,64.16
2019-05-07T06:58:21.961Z,64.60
2019-05-07T06:59:22.514Z,65.29
2019-05-07T07:00:22.534Z,66.14
2019-05-07T07:01:22.835Z,66.55
2019-05-07T07:02:22.488Z,67.20
2019-05-07T07:03:22.310Z,67.51
2019-05-07T07:04:22.518Z,67.51
2019-05-07T07:05:25.325Z,67.82
2019-05-07T07:06:22.420Z,66.58
2019-05-07T07:07:27.501Z,65.56
2019-05-07T07:08:20.372Z,66.28
2019-05-07T07:09:22.241Z,65.94
2019-05-07T07:10:22.541Z,65.91
2019-05-07T07:11:22.421Z,65.19
2019-05-07T07:12:22.920Z,65.06
2019-05-07T07:13:22.152Z,64.23
2019-05-07T07:14:22.577Z,63.85
2019-05-07T07:15:20.162Z,64.60
2019-05-07T07:16:22.451Z,64.91
2019-05-07T07:17:22.144Z,64.19
2019-05-07T07:18:23.067Z,64.19
2019-05-07T07:19:20.040Z,65.12
2019-05-07T07:20:21.887Z,64.40
2019-05-07T07:21:22.005Z,64.78
2019-05-07T07:22:22.138Z,63.00
2019-05-07T07:23:19.920Z,61.46
2019-05-07T07:24:21.988Z,61.36
2019-05-07T07:25:19.859Z,61.23
2019-05-07T07:26:21.907Z,60.69
2019-05-07T07:27:19.825Z,60.56
2019-05-07T07:28:21.731Z,59.87
2019-05-07T07:29:21.495Z,60.07
2019-05-07T07:30:21.732Z,59.25
2019-05-07T07:31:19.675Z,59.28
2019-05-07T07:32:19.677Z,59.69
2019-05-07T07:33:19.620Z,59.00
2019-05-07T07:34:19.589Z,57.05
2019-05-07T07:35:19.560Z,57.05
2019-05-07T07:36:19.530Z,58.69
2019-05-07T07:37:19.534Z,57.77
2019-05-07T07:38:19.467Z,58.39
2019-05-07T07:39:19.444Z,59.28
2019-05-07T07:40:19.418Z,58.54
2019-05-07T07:41:19.386Z,56.59
2019-05-07T07:42:19.371Z,57.00
2019-05-07T07:43:19.320Z,56.77
2019-05-07T07:44:19.292Z,54.82
2019-05-07T07:45:19.262Z,54.85
2019-05-07T07:46:19.231Z,54.64
2019-05-07T07:47:19.223Z,55.15
2019-05-07T07:48:19.179Z,56.59
2019-05-07T07:49:19.140Z,57.23
2019-05-07T07:50:19.152Z,57.23
2019-05-07T07:51:19.144Z,55.69
2019-05-07T07:52:19.105Z,57.23
2019-05-07T07:53:19.053Z,56.69
2019-05-07T07:54:19.009Z,56.02
2019-05-07T07:55:18.960Z,56.33
2019-05-07T07:56:18.930Z,52.80
2019-05-07T07:57:18.956Z,52.59
2019-05-07T07:58:18.898Z,53.62
2019-05-07T07:59:18.889Z,54.74
2019-05-07T08:00:18.855Z,54.64
2019-05-07T08:01:18.795Z,53.72
2019-05-07T08:02:19.131Z,52.70
2019-05-07T08:03:19.722Z,52.21
2019-05-07T08:04:18.769Z,51.59
2019-05-07T08:05:18.734Z,51.90
2019-05-07T08:06:18.633Z,51.82
2019-05-07T08:07:18.644Z,52.51
2019-05-07T08:08:18.576Z,52.51
2019-05-07T08:09:18.550Z,52.11
2019-05-07T08:10:18.514Z,52.11
2019-05-07T08:11:18.494Z,52.08
2019-05-07T08:12:18.487Z,51.24
2019-05-07T08:13:18.427Z,50.91
2019-05-07T08:14:18.417Z,50.81
2019-05-07T08:15:23.713Z,51.21
2019-05-07T08:16:18.334Z,51.75
2019-05-07T08:17:18.334Z,51.04
2019-05-07T08:18:18.318Z,48.99
2019-05-07T08:19:21.956Z,50.45
2019-05-07T08:20:18.220Z,50.55
2019-05-07T08:21:18.189Z,49.09
2019-05-07T08:22:18.182Z,50.55
2019-05-07T08:23:18.144Z,49.09
2019-05-07T08:24:18.103Z,49.09
2019-05-07T08:25:18.070Z,49.89
2019-05-07T08:26:18.045Z,48.27
2019-05-07T08:27:18.024Z,46.44
2019-05-07T08:28:18.108Z,45.94
2019-05-07T08:29:17.974Z,46.17
2019-05-07T08:30:17.923Z,48.26
2019-05-07T08:31:17.899Z,47.52
2019-05-07T08:32:17.870Z,47.34
2019-05-07T08:33:17.859Z,47.42
2019-05-07T08:34:17.825Z,47.91
2019-05-07T08:35:17.778Z,47.91
2019-05-07T08:36:17.756Z,47.56
2019-05-07T08:37:17.717Z,49.25
2019-05-07T08:38:17.820Z,48.72
2019-05-07T08:39:17.682Z,50.12
2019-05-07T08:40:17.628Z,47.55
2019-05-07T08:41:17.606Z,46.83
2019-05-07T08:42:17.578Z,47.04
2019-05-07T08:43:17.566Z,47.63
2019-05-07T08:44:17.514Z,45.59
2019-05-07T08:45:17.535Z,46.33
2019-05-07T08:46:18.094Z,46.45
2019-05-07T08:47:17.438Z,45.94
2019-05-07T08:48:17.564Z,46.06
2019-05-07T08:49:17.369Z,46.67
2019-05-07T08:50:17.345Z,47.90
2019-05-07T08:51:17.317Z,48.90
2019-05-07T08:52:17.288Z,48.77
2019-05-07T08:53:17.277Z,46.73
2019-05-07T08:54:17.238Z,46.30
2019-05-07T08:55:17.197Z,47.02
2019-05-07T08:56:17.170Z,46.30
2019-05-07T08:57:17.144Z,46.51
2019-05-07T08:58:17.136Z,45.59
2019-05-07T08:59:17.083Z,45.89
2019-05-07T09:00:17.056Z,46.51
2019-05-07T09:01:17.028Z,46.20
2019-05-07T09:02:17.009Z,45.18
2019-05-07T09:03:22.181Z,45.26
2019-05-07T09:04:16.946Z,46.79
2019-05-07T09:05:16.922Z,47.20
2019-05-07T09:06:16.888Z,47.32
2019-05-07T09:07:16.879Z,48.03
2019-05-07T09:08:16.859Z,47.34
2019-05-07T09:09:16.810Z,48.43
2019-05-07T09:10:16.781Z,49.79
2019-05-07T09:11:17.495Z,50.85
2019-05-07T09:12:17.583Z,52.31
2019-05-07T09:13:16.734Z,52.83
2019-05-07T09:14:16.713Z,52.51
2019-05-07T09:15:16.646Z,53.13
2019-05-07T09:16:16.611Z,52.62
2019-05-07T09:17:16.582Z,53.44
2019-05-07T09:18:16.564Z,52.90
2019-05-07T09:19:16.549Z,52.59
2019-05-07T09:20:16.498Z,49.11
2019-05-07T09:21:16.472Z,49.30
2019-05-07T09:22:16.440Z,48.97
2019-05-07T09:23:16.406Z,49.05
2019-05-07T09:24:16.401Z,45.78
2019-05-07T09:25:16.346Z,43.73
2019-05-07T09:26:16.318Z,41.79
2019-05-07T09:27:16.296Z,40.85
2019-05-07T09:28:16.266Z,43.59
2019-05-07T09:29:16.260Z,45.20
2019-05-07T09:30:16.201Z,45.28
2019-05-07T09:31:16.179Z,45.20
2019-05-07T09:32:16.150Z,44.81
2019-05-07T09:33:16.118Z,46.14
2019-05-07T09:34:16.115Z,45.00
2019-05-07T09:35:16.067Z,43.98
2019-05-07T09:36:16.026Z,43.43
2019-05-07T09:37:16.000Z,42.00
2019-05-07T09:38:15.971Z,42.00
2019-05-07T09:39:15.965Z,40.98
2019-05-07T09:40:15.917Z,40.35
2019-05-07T09:41:15.907Z,41.57
2019-05-07T09:42:15.871Z,41.86
2019-05-07T09:43:15.835Z,39.82
2019-05-07T09:44:15.804Z,40.14
2019-05-07T09:45:15.800Z,42.16
2019-05-07T09:46:15.753Z,41.55
2019-05-07T09:47:15.723Z,41.43
2019-05-07T09:48:15.719Z,40.64
2019-05-07T09:49:15.661Z,40.82
2019-05-07T09:50:15.662Z,40.72
2019-05-07T09:51:15.615Z,41.13
2019-05-07T09:52:15.585Z,41.33
2019-05-07T09:53:15.551Z,41.23
2019-05-07T09:54:15.529Z,41.02
2019-05-07T09:55:17.592Z,40.23
2019-05-07T09:56:15.468Z,40.72
2019-05-07T09:57:27.726Z,39.42
2019-05-07T09:58:15.419Z,40.43
2019-05-07T09:59:15.387Z,40.33
2019-05-07T10:00:15.383Z,39.21
2019-05-07T10:01:15.338Z,39.64
2019-05-07T10:02:15.303Z,40.86
2019-05-07T10:03:15.281Z,39.64
2019-05-07T10:04:15.255Z,39.84
2019-05-07T10:05:15.271Z,40.74
2019-05-07T10:06:15.193Z,39.82
2019-05-07T10:07:15.166Z,40.11
2019-05-07T10:08:15.140Z,39.70
2019-05-07T10:09:15.114Z,39.01
2019-05-07T10:10:15.109Z,40.94
2019-05-07T10:11:15.061Z,41.37
2019-05-07T10:12:15.031Z,41.47
2019-05-07T10:13:15.000Z,42.08
2019-05-07T10:14:14.970Z,42.00
2019-05-07T10:15:15.628Z,42.73
2019-05-07T10:16:14.921Z,42.35
2019-05-07T10:17:15.507Z,42.76
2019-05-07T10:18:14.864Z,42.65
2019-05-07T10:19:14.834Z,42.12
2019-05-07T10:20:21.522Z,41.83
2019-05-07T10:21:14.782Z,42.16
2019-05-07T10:22:14.757Z,43.29
2019-05-07T10:23:14.720Z,41.22
2019-05-07T10:24:14.695Z,41.20
2019-05-07T10:25:15.512Z,40.37
2019-05-07T10:26:14.656Z,39.96
2019-05-07T10:27:14.604Z,39.11
2019-05-07T10:28:14.580Z,39.42
2019-05-07T10:29:14.548Z,39.48
2019-05-07T10:30:14.518Z,39.26
2019-05-07T10:31:14.514Z,38.83
2019-05-07T10:32:14.466Z,37.90
2019-05-07T10:33:14.438Z,35.16
2019-05-07T10:34:14.406Z,35.75
2019-05-07T10:35:14.383Z,37.37
2019-05-07T10:36:14.391Z,37.88
2019-05-07T10:37:14.344Z,36.66
2019-05-07T10:38:14.296Z,36.47
2019-05-07T10:39:15.099Z,37.02
2019-05-07T10:40:17.013Z,39.17
2019-05-07T10:41:14.239Z,39.50
2019-05-07T10:42:14.191Z,39.84
2019-05-07T10:43:15.112Z,40.88
2019-05-07T10:44:14.136Z,41.10
2019-05-07T10:45:14.106Z,41.14
2019-05-07T10:46:14.107Z,41.83
2019-05-07T10:47:14.077Z,41.41
2019-05-07T10:48:14.025Z,39.98
2019-05-07T10:49:14.005Z,39.37
2019-05-07T10:50:13.976Z,39.49
2019-05-07T10:51:13.967Z,39.28
2019-05-07T10:52:13.924Z,36.63
2019-05-07T10:53:13.890Z,36.41
2019-05-07T10:54:14.517Z,36.41
2019-05-07T10:55:13.829Z,37.51
2019-05-07T10:56:13.849Z,37.80
2019-05-07T10:57:13.773Z,36.05
2019-05-07T10:58:13.740Z,36.14
2019-05-07T10:59:13.713Z,36.44
2019-05-07T11:00:13.689Z,35.64
2019-05-07T11:01:13.681Z,35.93
2019-05-07T11:02:13.636Z,35.09
2019-05-07T11:03:13.616Z,34.26
2019-05-07T11:04:13.574Z,34.65
2019-05-07T11:05:13.556Z,33.83
2019-05-07T11:06:13.543Z,34.34
2019-05-07T11:07:13.488Z,35.66
2019-05-07T11:08:13.462Z,34.05
2019-05-07T11:09:13.442Z,34.87
2019-05-07T11:10:13.405Z,37.29
2019-05-07T11:11:13.378Z,35.05
2019-05-07T11:12:13.448Z,36.17
2019-05-07T11:13:13.328Z,36.07
2019-05-07T11:14:13.302Z,35.56
2019-05-07T11:15:13.270Z,35.66
2019-05-07T11:16:13.246Z,35.97
2019-05-07T11:17:13.732Z,36.47
2019-05-07T11:18:13.189Z,35.95
2019-05-07T11:19:13.163Z,35.34
2019-05-07T11:20:13.162Z,36.66
2019-05-07T11:21:14.026Z,35.56
2019-05-07T11:22:13.178Z,36.78
2019-05-07T11:23:13.059Z,36.58
2019-05-07T11:24:13.031Z,35.24
2019-05-07T11:25:13.104Z,37.39
2019-05-07T11:26:12.977Z,36.58
2019-05-07T11:27:12.991Z,36.61
2019-05-07T11:28:12.929Z,37.77
2019-05-07T11:29:13.128Z,37.97
2019-05-07T11:30:12.871Z,38.21
2019-05-07T11:31:12.842Z,39.15
2019-05-07T11:32:12.855Z,39.37
2019-05-07T11:33:13.064Z,39.57
2019-05-07T11:34:13.902Z,39.26
2019-05-07T11:35:14.731Z,39.33
2019-05-07T11:36:12.706Z,39.43
2019-05-07T11:37:12.703Z,37.49
2019-05-07T11:38:21.104Z,36.27
2019-05-07T11:39:12.630Z,35.25
2019-05-07T11:40:13.098Z,36.17
2019-05-07T11:41:12.834Z,34.32
2019-05-07T11:42:12.750Z,34.63
2019-05-07T11:43:13.107Z,35.73
2019-05-07T11:44:12.496Z,34.61
2019-05-07T11:45:12.488Z,35.12
2019-05-07T11:46:13.056Z,35.21
2019-05-07T11:47:12.439Z,34.39
2019-05-07T11:48:13.281Z,34.09
2019-05-07T11:49:18.028Z,35.19
2019-05-07T11:50:14.698Z,34.26
2019-05-07T11:51:15.070Z,35.27
2019-05-07T11:52:14.908Z,35.17
2019-05-07T11:53:12.258Z,35.97
2019-05-07T11:54:12.821Z,33.41
2019-05-07T11:55:12.238Z,32.01
2019-05-07T11:56:12.147Z,32.95
2019-05-07T11:57:12.114Z,34.20
2019-05-07T11:58:12.858Z,34.41
2019-05-07T11:59:13.445Z,34.31
2019-05-07T12:00:12.890Z,34.39
2019-05-07T12:01:12.557Z,34.38
2019-05-07T12:02:12.192Z,34.26
2019-05-07T12:03:11.979Z,35.05
2019-05-07T12:04:12.591Z,34.22
2019-05-07T12:05:12.187Z,35.44
2019-05-07T12:06:12.412Z,33.40
2019-05-07T12:07:12.022Z,33.60
2019-05-07T12:08:14.032Z,31.87
2019-05-07T12:09:12.209Z,33.51
2019-05-07T12:10:12.183Z,32.70
2019-05-07T12:11:12.005Z,32.41
2019-05-07T12:12:12.794Z,33.11
2019-05-07T12:13:21.793Z,32.28
2019-05-07T12:14:12.406Z,32.48
2019-05-07T12:15:12.496Z,32.98
2019-05-07T12:16:14.094Z,33.87
2019-05-07T12:17:12.028Z,33.89
2019-05-07T12:18:11.892Z,31.25
2019-05-07T12:19:12.619Z,31.48
2019-05-07T12:20:12.515Z,32.29
2019-05-07T12:21:20.763Z,33.63
2019-05-07T12:22:12.096Z,33.65
2019-05-07T12:23:12.164Z,34.16
2019-05-07T12:24:12.906Z,34.38
2019-05-07T12:25:12.119Z,34.68
2019-05-07T12:26:12.570Z,35.21
2019-05-07T12:27:11.927Z,35.61
2019-05-07T12:28:13.087Z,34.88
2019-05-07T12:29:11.849Z,35.70
2019-05-07T12:30:12.215Z,35.80
2019-05-07T12:31:12.145Z,36.51
2019-05-07T12:32:11.162Z,35.63
2019-05-07T12:33:12.350Z,36.16
2019-05-07T12:34:11.835Z,36.38
2019-05-07T12:35:12.712Z,37.23
2019-05-07T12:36:12.616Z,37.74
2019-05-07T12:37:12.315Z,37.84
2019-05-07T12:38:12.781Z,37.74
2019-05-07T12:39:12.810Z,37.43
2019-05-07T12:40:12.416Z,38.26
2019-05-07T12:41:12.785Z,37.94
2019-05-07T12:42:12.010Z,37.92
2019-05-07T12:43:10.868Z,36.58
2019-05-07T12:44:12.799Z,37.17
2019-05-07T12:45:12.579Z,36.14
2019-05-07T12:46:11.942Z,35.02
2019-05-07T12:47:12.024Z,35.63
2019-05-07T12:48:12.183Z,35.10
2019-05-07T12:49:12.027Z,35.39
2019-05-07T12:50:10.662Z,35.07
2019-05-07T12:51:12.499Z,34.66
2019-05-07T12:52:12.552Z,35.16
2019-05-07T12:53:12.341Z,35.75
2019-05-07T12:54:11.998Z,35.04
2019-05-07T12:55:11.915Z,33.62
2019-05-07T12:56:10.493Z,32.89
2019-05-07T12:57:11.806Z,33.09
2019-05-07T12:58:12.486Z,33.51
2019-05-07T12:59:12.656Z,33.89
2019-05-07T13:00:12.218Z,31.77
2019-05-07T13:01:10.356Z,32.28
2019-05-07T13:02:18.336Z,33.91
2019-05-07T13:03:12.606Z,33.19
2019-05-07T13:04:10.282Z,33.02
2019-05-07T13:05:11.898Z,33.94
2019-05-07T13:06:11.644Z,33.65
2019-05-07T13:07:11.688Z,33.73
2019-05-07T13:08:12.216Z,33.83
2019-05-07T13:09:10.138Z,33.72
2019-05-07T13:10:10.176Z,34.41
2019-05-07T13:11:10.102Z,32.06
2019-05-07T13:12:10.076Z,33.09
2019-05-07T13:13:12.170Z,33.02
2019-05-07T13:14:12.457Z,33.53
2019-05-07T13:15:21.938Z,33.75
2019-05-07T13:16:09.962Z,33.43
2019-05-07T13:17:11.960Z,33.44
2019-05-07T13:18:09.913Z,33.44
2019-05-07T13:19:09.892Z,34.07
2019-05-07T13:20:12.015Z,33.97
2019-05-07T13:21:11.787Z,34.38
2019-05-07T13:22:09.904Z,34.29
2019-05-07T13:23:11.839Z,34.38
2019-05-07T13:24:11.697Z,34.09
2019-05-07T13:25:09.739Z,34.09
2019-05-07T13:26:09.690Z,34.70
2019-05-07T13:27:09.689Z,34.70
2019-05-07T13:28:11.733Z,35.10
2019-05-07T13:29:09.631Z,35.00
2019-05-07T13:30:11.730Z,35.00
2019-05-07T13:31:09.580Z,35.49
2019-05-07T13:32:09.529Z,35.27
2019-05-07T13:33:09.512Z,35.27
2019-05-07T13:34:09.491Z,35.68
2019-05-07T13:35:09.452Z,34.34
2019-05-07T13:36:09.459Z,34.24
2019-05-07T13:37:09.392Z,34.65
2019-05-07T13:38:09.377Z,35.16
2019-05-07T13:39:09.346Z,33.72
2019-05-07T13:40:09.326Z,33.94
2019-05-07T13:41:09.313Z,35.05
2019-05-07T13:42:09.264Z,34.34
2019-05-07T13:43:09.236Z,35.46
2019-05-07T13:44:09.211Z,34.74
2019-05-07T13:45:09.180Z,34.94
2019-05-07T13:46:09.190Z,33.91
2019-05-07T13:47:09.131Z,33.40
2019-05-07T13:48:09.114Z,33.37
2019-05-07T13:49:09.163Z,33.16
2019-05-07T13:50:09.051Z,32.95
2019-05-07T13:51:09.052Z,31.93
2019-05-07T13:52:08.998Z,33.45
2019-05-07T13:53:08.970Z,32.84
2019-05-07T13:54:08.946Z,34.36
2019-05-07T13:55:08.926Z,32.45
2019-05-07T13:56:08.919Z,32.37
2019-05-07T13:57:08.873Z,32.59
2019-05-07T13:58:08.842Z,34.00
2019-05-07T13:59:08.822Z,33.50
2019-05-07T14:00:08.791Z,33.50
2019-05-07T14:01:08.788Z,33.01
2019-05-07T14:02:08.744Z,32.07
2019-05-07T14:03:08.713Z,33.01
2019-05-07T14:04:08.720Z,33.31
2019-05-07T14:05:08.661Z,33.62
2019-05-07T14:06:08.632Z,33.11
2019-05-07T14:07:08.635Z,33.19
2019-05-07T14:08:08.581Z,32.67
2019-05-07T14:09:08.602Z,33.47
2019-05-07T14:10:08.536Z,33.16
2019-05-07T14:11:08.506Z,32.44
2019-05-07T14:12:08.502Z,32.95
2019-05-07T14:13:14.350Z,33.69
2019-05-07T14:14:08.424Z,33.70
2019-05-07T14:15:08.407Z,33.31
2019-05-07T14:16:08.373Z,33.73
2019-05-07T14:17:08.386Z,34.44
2019-05-07T14:18:08.329Z,33.41
2019-05-07T14:19:08.299Z,33.92
2019-05-07T14:20:08.313Z,33.11
2019-05-07T14:21:08.246Z,33.91
2019-05-07T14:22:18.040Z,33.60
2019-05-07T14:23:08.206Z,35.00
2019-05-07T14:24:08.169Z,32.45
2019-05-07T14:25:08.137Z,31.54
2019-05-07T14:26:08.129Z,31.76
2019-05-07T14:27:08.111Z,31.86
2019-05-07T14:28:08.068Z,32.17
2019-05-07T14:29:08.033Z,32.65
2019-05-07T14:30:08.009Z,32.05
2019-05-07T14:31:07.985Z,32.23
2019-05-07T14:32:07.991Z,31.84
2019-05-07T14:33:07.930Z,31.95
2019-05-07T14:34:07.908Z,31.35
2019-05-07T14:35:07.927Z,32.67
2019-05-07T14:36:07.878Z,32.47
2019-05-07T14:37:07.853Z,32.45
2019-05-07T14:38:07.800Z,33.06
2019-05-07T14:39:07.778Z,34.16
2019-05-07T14:40:07.748Z,33.74
2019-05-07T14:41:07.731Z,31.29
2019-05-07T14:42:07.695Z,30.67
2019-05-07T14:43:07.697Z,30.07
2019-05-07T14:44:07.645Z,29.95
2019-05-07T14:45:07.613Z,29.95
2019-05-07T14:46:07.591Z,30.15
2019-05-07T14:47:07.568Z,29.83
2019-05-07T14:48:07.566Z,29.43
2019-05-07T14:49:07.521Z,28.72
2019-05-07T14:50:07.556Z,29.83
2019-05-07T14:51:07.463Z,30.22
2019-05-07T14:52:07.452Z,30.02
2019-05-07T14:53:07.435Z,30.11
2019-05-07T14:54:07.390Z,29.32
2019-05-07T14:55:07.367Z,29.13
2019-05-07T14:56:07.342Z,30.24
2019-05-07T14:57:07.312Z,30.54
2019-05-07T14:58:07.335Z,30.34
2019-05-07T14:59:07.265Z,30.13
2019-05-07T15:00:07.247Z,30.04
2019-05-07T15:01:07.217Z,29.02
2019-05-07T15:02:07.197Z,29.52
2019-05-07T15:03:07.196Z,30.12
2019-05-07T15:04:07.140Z,30.22
2019-05-07T15:05:07.119Z,30.41
2019-05-07T15:06:07.092Z,30.12
2019-05-07T15:07:07.063Z,29.43
2019-05-07T15:08:10.921Z,29.34
2019-05-07T15:09:07.019Z,29.64
2019-05-07T15:10:07.010Z,31.48
2019-05-07T15:11:06.970Z,31.26
2019-05-07T15:12:06.946Z,31.18
2019-05-07T15:13:06.953Z,31.28
2019-05-07T15:14:06.890Z,31.38
2019-05-07T15:15:06.893Z,30.89
2019-05-07T15:16:06.851Z,31.29
2019-05-07T15:17:06.847Z,31.09
2019-05-07T15:18:06.827Z,30.79
2019-05-07T15:19:07.700Z,30.99
2019-05-07T15:20:06.783Z,29.99
2019-05-07T15:21:06.775Z,30.79
2019-05-07T15:22:06.699Z,29.69
2019-05-07T15:23:06.757Z,30.38
2019-05-07T15:24:07.207Z,30.87
2019-05-07T15:25:06.639Z,30.57
2019-05-07T15:26:06.720Z,30.77
2019-05-07T15:27:06.630Z,29.86
2019-05-07T15:28:06.660Z,30.89
2019-05-07T15:29:06.674Z,30.77
2019-05-07T15:30:06.521Z,30.98
2019-05-07T15:31:06.492Z,30.67
2019-05-07T15:32:06.456Z,30.27
2019-05-07T15:33:06.444Z,29.66
2019-05-07T15:34:06.398Z,29.97
2019-05-07T15:35:06.370Z,30.40
2019-05-07T15:36:06.695Z,31.21
2019-05-07T15:37:06.322Z,31.01
2019-05-07T15:38:06.323Z,31.09
2019-05-07T15:39:06.272Z,30.89
2019-05-07T15:40:06.251Z,30.89
2019-05-07T15:41:06.220Z,30.40
2019-05-07T15:42:06.200Z,31.10
2019-05-07T15:43:06.202Z,29.99
2019-05-07T15:44:06.173Z,31.02
2019-05-07T15:45:06.124Z,31.42
2019-05-07T15:46:06.106Z,31.12
2019-05-07T15:47:06.069Z,29.80
2019-05-07T15:48:06.071Z,30.19
2019-05-07T15:49:06.032Z,30.50
2019-05-07T15:50:05.992Z,30.58
2019-05-07T15:51:05.967Z,30.08
2019-05-07T15:52:05.963Z,30.38
2019-05-07T15:53:05.934Z,30.36
2019-05-07T15:54:06.323Z,30.87
2019-05-07T15:55:05.869Z,30.25
2019-05-07T15:56:05.889Z,30.18
2019-05-07T15:57:05.819Z,30.29
2019-05-07T15:58:05.795Z,30.31
2019-05-07T15:59:06.840Z,30.74
2019-05-07T16:00:05.745Z,31.25
2019-05-07T16:01:05.739Z,31.05
2019-05-07T16:02:05.696Z,31.26
2019-05-07T16:03:05.669Z,32.59
2019-05-07T16:04:18.821Z,31.66
2019-05-07T16:05:05.654Z,31.37
2019-05-07T16:06:05.590Z,32.18
2019-05-07T16:07:05.562Z,32.68
2019-05-07T16:08:05.539Z,31.26
2019-05-07T16:09:05.594Z,31.47
2019-05-07T16:10:05.480Z,32.07
2019-05-07T16:11:05.462Z,32.37
2019-05-07T16:12:05.432Z,31.56
2019-05-07T16:13:05.403Z,31.66
2019-05-07T16:14:05.413Z,32.25
2019-05-07T16:15:05.360Z,31.24
2019-05-07T16:16:05.333Z,31.13
2019-05-07T16:17:05.303Z,31.34
2019-05-07T16:18:05.274Z,30.83
2019-05-07T16:19:05.271Z,32.05
2019-05-07T16:20:05.234Z,30.93
2019-05-07T16:21:05.276Z,31.66
2019-05-07T16:22:05.171Z,31.98
2019-05-07T16:23:14.635Z,32.40
2019-05-07T16:24:05.142Z,33.21
2019-05-07T16:25:07.339Z,31.89
2019-05-07T16:26:05.232Z,32.47
2019-05-07T16:27:05.350Z,31.52
2019-05-07T16:28:05.136Z,31.41
2019-05-07T16:29:05.053Z,30.80
2019-05-07T16:30:04.959Z,31.22
2019-05-07T16:31:04.939Z,30.73
2019-05-07T16:32:04.913Z,31.34
2019-05-07T16:33:04.882Z,31.74
2019-05-07T16:34:04.858Z,31.24
2019-05-07T16:35:05.627Z,31.05
2019-05-07T16:36:04.821Z,32.38
2019-05-07T16:37:07.480Z,32.18
2019-05-07T16:38:04.760Z,32.80
2019-05-07T16:39:04.735Z,33.01
2019-05-07T16:40:04.765Z,33.40
2019-05-07T16:41:04.670Z,31.42
2019-05-07T16:42:04.646Z,31.49
2019-05-07T16:43:04.621Z,29.63
2019-05-07T16:44:04.607Z,29.47
2019-05-07T16:45:04.591Z,28.14
2019-05-07T16:46:04.538Z,27.50
2019-05-07T16:47:04.520Z,27.40
2019-05-07T16:48:04.493Z,27.09
2019-05-07T16:49:04.470Z,27.15
2019-05-07T16:50:04.513Z,26.75
2019-05-07T16:51:04.415Z,26.62
2019-05-07T16:52:04.382Z,25.42
2019-05-07T16:53:04.356Z,26.02
2019-05-07T16:54:04.331Z,26.13
2019-05-07T16:55:04.355Z,25.93
2019-05-07T16:56:04.293Z,24.91
2019-05-07T16:57:04.253Z,25.93
2019-05-07T16:58:04.249Z,25.94
2019-05-07T16:59:04.217Z,26.35
2019-05-07T17:00:04.217Z,26.29
2019-05-07T17:01:04.162Z,28.38
2019-05-07T17:02:04.148Z,30.13
2019-05-07T17:03:04.115Z,30.36
2019-05-07T17:04:04.100Z,30.51
2019-05-07T17:05:04.101Z,30.70
2019-05-07T17:06:04.039Z,29.83
2019-05-07T17:07:04.011Z,28.88
2019-05-07T17:08:03.991Z,28.55
2019-05-07T17:09:03.967Z,27.83
2019-05-07T17:10:03.940Z,27.82
2019-05-07T17:11:03.943Z,27.10
2019-05-07T17:12:03.888Z,27.83
2019-05-07T17:13:03.863Z,28.49
2019-05-07T17:14:03.853Z,30.07
2019-05-07T17:15:03.824Z,31.01
2019-05-07T17:16:03.817Z,30.93
2019-05-07T17:17:03.766Z,32.37
2019-05-07T17:18:03.747Z,31.99
2019-05-07T17:19:03.776Z,32.01